»·PEaware :: SWA2010 KLAS-KSLC

SWA2010 :: KLAS-KSLC

FLIGHT INFORMATION

Flight Status: Arrived
Operator:
Southwest Airlines
More flights by this operator :: More flights under this callsign
Pilot: Rohan O. (9904)
Aircraft: BOEING 737-300
(B733)
More flights by this aircraft type
Origin: KLAS McCarran Intl
United States
Destination: KSLC Salt Lake City Intl
United States
More flights between these airports :: More routes between these airports
Route: +TRALR9 MLF DELTA5
File this flight plan on PilotEdge
Remarks: PBN / A1B3B4B5D3D4 DOF / 180419 REG / N155AW EET / KZLC0022 OPR / SWA PER / C RMK / TCAS SIMBRIEF
Altitude:
(Current/Filed)
31,000ft
Speed:
(Current/Filed)
402kts
Departed: 19-Apr-18 10:22 AM
Arrived: 19-Apr-18 11:28 AM
Distance/Time
Traveled:
319nm/1:06
Distance/Time
To Go:
Arrived

Flight Plot

Page will automatically refresh every two minutes.

Flight plan parsing failed; only flown route is shown


Map Options




Map Legend


Flown Route
Filed Route
Departure Airport
Arrival Airport
Navaid (VOR, NDB)
Fix

Horizontal Profiles

Position Reports

Time Latitude Longitude Heading Altitude Ground
Speed
19-Apr-18 09:59 36.098840 -115.161476 359 2148ft 0kts
19-Apr-18 10:00 36.098840 -115.161476 359 2148ft 0kts
19-Apr-18 10:01 36.098840 -115.161476 359 2148ft 0kts
19-Apr-18 10:02 36.098840 -115.161476 359 2148ft 0kts
19-Apr-18 10:03 36.098840 -115.161476 359 2148ft 0kts
19-Apr-18 10:04 36.098840 -115.161476 359 2148ft 0kts
19-Apr-18 10:05 36.098840 -115.161476 359 2148ft 0kts
19-Apr-18 10:06 36.098840 -115.161476 359 2148ft 0kts
19-Apr-18 10:07 36.098840 -115.161476 359 2148ft 0kts
19-Apr-18 10:08 36.098840 -115.161476 359 2148ft 0kts
19-Apr-18 10:09 36.098840 -115.161476 359 2148ft 0kts
19-Apr-18 10:10 36.098840 -115.161476 359 2148ft 0kts
19-Apr-18 10:11 36.098840 -115.161476 359 2148ft 0kts
19-Apr-18 10:12 36.098840 -115.161476 359 2148ft 0kts
19-Apr-18 10:13 36.098756 -115.161476 0 2148ft 0kts
19-Apr-18 10:14 36.098210 -115.161466 357 2148ft 0kts
19-Apr-18 10:15 36.098074 -115.161457 356 2148ft 0kts
19-Apr-18 10:16 36.098074 -115.161457 356 2148ft 0kts
19-Apr-18 10:17 36.098095 -115.161453 9 2148ft 0kts
19-Apr-18 10:18 36.097841 -115.160569 115 2148ft 5kts
19-Apr-18 10:19 36.099619 -115.158471 70 2148ft 10kts
19-Apr-18 10:20 36.098946 -115.156804 207 2148ft 11kts
19-Apr-18 10:21 36.080398 -115.167448 206 2199ft 158kts
19-Apr-18 10:22 36.035269 -115.194471 206 3971ft 197kts
19-Apr-18 10:23 35.996119 -115.246772 239 5942ft 230kts
19-Apr-18 10:24 35.940614 -115.285576 186 8259ft 250kts
19-Apr-18 10:25 35.882152 -115.250406 132 10200ft 289kts
19-Apr-18 10:26 35.862521 -115.148213 91 11720ft 348kts
19-Apr-18 10:27 35.880285 -115.030612 63 13733ft 385kts
19-Apr-18 10:28 35.932781 -114.916674 66 15905ft 400kts
19-Apr-18 10:29 35.981299 -114.797768 70 17846ft 413kts
19-Apr-18 10:30 36.030530 -114.670416 70 19710ft 428kts
19-Apr-18 10:31 36.081609 -114.537969 70 21449ft 443kts
19-Apr-18 10:32 36.128561 -114.416288 70 22828ft 455kts
19-Apr-18 10:33 36.177912 -114.287325 71 24029ft 466kts
19-Apr-18 10:34 36.233256 -114.143309 70 25273ft 477kts
19-Apr-18 10:35 36.289750 -113.997999 70 26410ft 488kts
19-Apr-18 10:36 36.347900 -113.847769 70 27499ft 498kts
19-Apr-18 10:37 36.406302 -113.696213 70 28846ft 499kts
19-Apr-18 10:38 36.495749 -113.573279 11 29828ft 513kts
19-Apr-18 10:39 36.631097 -113.559212 8 30818ft 512kts
19-Apr-18 10:40 36.762139 -113.519482 9 30904ft 499kts
19-Apr-18 10:41 36.894005 -113.479678 9 30919ft 501kts
19-Apr-18 10:42 37.027119 -113.439324 10 30906ft 502kts
19-Apr-18 10:43 37.149346 -113.402185 11 30895ft 504kts
19-Apr-18 10:44 37.282278 -113.361653 11 30911ft 505kts
19-Apr-18 10:45 37.401397 -113.324627 12 30915ft 504kts
19-Apr-18 10:46 37.525610 -113.284714 12 30928ft 505kts
19-Apr-18 10:47 37.659200 -113.241695 12 30930ft 504kts
19-Apr-18 10:48 37.791797 -113.198856 13 30928ft 504kts
19-Apr-18 10:49 37.922594 -113.156421 12 30929ft 505kts
19-Apr-18 10:50 38.053683 -113.113740 12 30928ft 503kts
19-Apr-18 10:51 38.176547 -113.073678 12 30924ft 502kts
19-Apr-18 10:52 38.305940 -113.031274 12 30932ft 503kts
19-Apr-18 10:53 38.434831 -112.974320 23 30930ft 502kts
19-Apr-18 10:54 38.561000 -112.906372 22 30926ft 498kts
19-Apr-18 10:55 38.684674 -112.840205 22 30927ft 495kts
19-Apr-18 10:56 38.807928 -112.773999 21 30924ft 493kts
19-Apr-18 10:57 38.928576 -112.708775 22 30251ft 492kts
19-Apr-18 10:58 39.049401 -112.643359 22 28653ft 483kts
19-Apr-18 10:59 39.157950 -112.584510 23 27395ft 484kts
19-Apr-18 11:00 39.277654 -112.519299 23 26059ft 482kts
19-Apr-18 11:01 39.402534 -112.472331 13 24854ft 475kts
19-Apr-18 11:02 39.522947 -112.432547 14 23380ft 462kts
19-Apr-18 11:03 39.639772 -112.393664 16 21860ft 447kts
19-Apr-18 11:04 39.751838 -112.356211 16 20396ft 429kts
19-Apr-18 11:05 39.855014 -112.321405 17 19029ft 416kts
19-Apr-18 11:06 39.955597 -112.287559 17 17665ft 404kts
19-Apr-18 11:07 40.052432 -112.254867 17 16937ft 397kts
19-Apr-18 11:08 40.138698 -112.225624 17 15979ft 390kts
19-Apr-18 11:09 40.236707 -112.192394 17 14845ft 380kts
19-Apr-18 11:10 40.333348 -112.159475 17 13885ft 372kts
19-Apr-18 11:11 40.430114 -112.126461 16 13321ft 370kts
19-Apr-18 11:12 40.519338 -112.096042 16 12633ft 366kts
19-Apr-18 11:13 40.599724 -112.080148 4 11567ft 361kts
19-Apr-18 11:14 40.673345 -112.082547 355 10993ft 356kts
19-Apr-18 11:15 40.749993 -112.091875 353 11033ft 302kts
19-Apr-18 11:16 40.821798 -112.107580 350 9996ft 287kts
19-Apr-18 11:17 40.893265 -112.124061 351 8987ft 264kts
19-Apr-18 11:18 40.954340 -112.139263 351 9021ft 253kts
19-Apr-18 11:19 41.009633 -112.122359 74 8629ft 215kts
19-Apr-18 11:20 41.014183 -112.051710 128 7487ft 202kts
19-Apr-18 11:21 40.975964 -112.009853 140 6991ft 188kts
19-Apr-18 11:22 40.931462 -111.990035 174 6833ft 172kts
19-Apr-18 11:23 40.892022 -111.986740 173 5934ft 142kts
19-Apr-18 11:24 40.855443 -111.982161 176 5170ft 141kts
19-Apr-18 11:25 40.826548 -111.978895 174 4691ft 141kts
19-Apr-18 11:26 40.795408 -111.975545 174 4234ft 72kts
19-Apr-18 11:27 40.790325 -111.976405 204 4234ft 10kts
19-Apr-18 11:28 40.788928 -111.977617 254 4234ft 3kts
19-Apr-18 11:29 40.788853 -111.977949 253 4234ft 0kts

Navigation Log

Ident Type
Flight plan parsing failed, navigation log unavailable